createdAt,value
2023-02-06T00:01:22.726Z,8.30
2023-02-06T00:04:16.990Z,7.90
2023-02-06T00:07:10.840Z,8.30
2023-02-06T00:10:04.749Z,8.50
2023-02-06T00:12:58.717Z,8.60
2023-02-06T00:15:38.093Z,8.70
2023-02-06T00:18:33.110Z,8.10
2023-02-06T00:21:28.998Z,7.40
2023-02-06T00:24:23.075Z,7.90
2023-02-06T00:27:16.928Z,7.90
2023-02-06T00:30:12.941Z,8.10
2023-02-06T00:33:06.835Z,7.70
2023-02-06T00:36:00.665Z,8.00
2023-02-06T00:38:54.467Z,8.90
2023-02-06T00:41:50.190Z,7.90
2023-02-06T00:44:44.436Z,8.00
2023-02-06T00:47:38.423Z,7.50
2023-02-06T00:50:32.137Z,7.50
2023-02-06T00:53:25.930Z,8.20
2023-02-06T00:56:21.556Z,7.80
2023-02-06T00:59:15.396Z,8.30
2023-02-06T01:02:09.059Z,7.60
2023-02-06T01:05:03.265Z,7.70
2023-02-06T01:07:57.264Z,7.30
2023-02-06T01:10:51.267Z,8.00
2023-02-06T01:13:45.103Z,7.40
2023-02-06T01:16:38.846Z,7.70
2023-02-06T01:19:32.715Z,8.00
2023-02-06T01:22:26.893Z,8.00
2023-02-06T01:25:21.143Z,7.90
2023-02-06T01:28:15.023Z,7.00
2023-02-06T01:31:17.208Z,7.80
2023-02-06T01:34:12.487Z,7.60
2023-02-06T01:37:06.214Z,7.90
2023-02-06T01:39:59.935Z,7.80
2023-02-06T01:42:53.703Z,7.60
2023-02-06T01:45:49.503Z,8.60
2023-02-06T01:48:46.904Z,8.50
2023-02-06T01:51:41.719Z,7.70
2023-02-06T01:54:36.764Z,7.80
2023-02-06T01:57:31.571Z,8.00
2023-02-06T02:00:26.617Z,7.70
2023-02-06T02:03:20.570Z,8.00
2023-02-06T02:06:17.377Z,7.90
2023-02-06T02:09:14.102Z,7.50
2023-02-06T02:12:09.378Z,8.60
2023-02-06T02:15:03.762Z,8.60
2023-02-06T02:18:04.669Z,8.70
2023-02-06T02:21:53.217Z,8.10
2023-02-06T02:25:17.817Z,8.20
2023-02-06T02:28:49.684Z,8.50
2023-02-06T02:32:22.522Z,8.70
2023-02-06T02:35:38.517Z,8.50
2023-02-06T02:38:44.873Z,9.20
2023-02-06T02:41:46.434Z,9.30
2023-02-06T02:44:51.439Z,9.10
2023-02-06T02:47:50.856Z,9.30
2023-02-06T02:50:46.289Z,9.60
2023-02-06T02:53:40.530Z,9.90
2023-02-06T02:56:34.768Z,9.80
2023-02-06T02:59:36.189Z,9.80
2023-02-06T03:02:36.670Z,10.40
2023-02-06T03:05:36.843Z,10.20
2023-02-06T03:08:57.720Z,10.60
2023-02-06T03:12:02.681Z,11.20
2023-02-06T03:15:03.735Z,9.80
2023-02-06T03:18:06.494Z,10.30
2023-02-06T03:21:03.105Z,11.40
2023-02-06T03:24:02.698Z,10.70
2023-02-06T03:27:01.444Z,10.90
2023-02-06T03:29:58.968Z,11.80
2023-02-06T03:32:58.655Z,10.80
2023-02-06T03:35:52.533Z,12.40
2023-02-06T03:38:49.044Z,11.30
2023-02-06T03:41:33.039Z,11.00
2023-02-06T03:44:33.522Z,11.20
2023-02-06T03:47:29.629Z,11.60
2023-02-06T03:50:26.580Z,11.60
2023-02-06T03:53:22.348Z,11.40
2023-02-06T03:56:27.717Z,10.80
2023-02-06T03:59:22.440Z,11.20
2023-02-06T04:02:17.956Z,11.10
2023-02-06T04:05:12.116Z,11.50
2023-02-06T04:08:06.080Z,11.80
2023-02-06T04:11:00.029Z,11.20
2023-02-06T04:13:53.696Z,11.10
2023-02-06T04:16:47.525Z,11.40
2023-02-06T04:19:42.109Z,12.50
2023-02-06T04:22:36.375Z,11.10
2023-02-06T04:25:30.147Z,11.20
2023-02-06T04:28:23.865Z,12.30
2023-02-06T04:31:17.717Z,11.40
2023-02-06T04:34:11.932Z,12.10
2023-02-06T04:37:07.501Z,11.50
2023-02-06T04:40:01.361Z,12.20
2023-02-06T04:42:55.181Z,12.20
2023-02-06T04:45:49.066Z,12.20
2023-02-06T04:48:42.848Z,12.10
2023-02-06T04:51:36.518Z,12.00
2023-02-06T04:54:32.633Z,10.80
2023-02-06T04:57:26.837Z,11.50
2023-02-06T05:00:21.578Z,11.90
2023-02-06T05:03:15.261Z,12.30
2023-02-06T05:06:09.870Z,11.60
2023-02-06T05:09:06.737Z,12.40
2023-02-06T05:12:00.460Z,12.30
2023-02-06T05:14:54.562Z,12.00
2023-02-06T05:17:48.226Z,12.30
2023-02-06T05:20:42.305Z,12.20
2023-02-06T05:23:36.111Z,12.30
2023-02-06T05:26:29.794Z,12.50
2023-02-06T05:29:23.540Z,12.60
2023-02-06T05:32:18.193Z,13.10
2023-02-06T05:35:12.647Z,12.00
2023-02-06T05:38:06.589Z,11.70
2023-02-06T05:41:00.391Z,12.00
2023-02-06T05:43:53.998Z,11.90
2023-02-06T05:46:48.641Z,12.70
2023-02-06T05:49:43.998Z,12.30
2023-02-06T05:52:37.865Z,13.10
2023-02-06T05:55:31.640Z,12.20
2023-02-06T05:58:25.311Z,12.60
2023-02-06T06:01:19.136Z,12.00
2023-02-06T06:04:12.887Z,11.90
2023-02-06T06:07:03.957Z,12.90
2023-02-06T06:09:57.637Z,12.60
2023-02-06T06:12:51.401Z,13.80
2023-02-06T06:15:45.243Z,12.80
2023-02-06T06:18:39.348Z,12.60
2023-02-06T06:21:33.944Z,13.10
2023-02-06T06:24:28.265Z,13.00
2023-02-06T06:27:22.036Z,13.30
2023-02-06T06:30:16.948Z,14.00
2023-02-06T06:33:10.767Z,14.50
2023-02-06T06:36:04.882Z,15.30
2023-02-06T06:38:58.628Z,15.20
2023-02-06T06:41:52.321Z,15.00
2023-02-06T06:44:46.076Z,15.00
2023-02-06T06:47:39.985Z,15.90
2023-02-06T06:50:25.382Z,16.00
2023-02-06T06:53:19.661Z,16.00
2023-02-06T06:56:16.299Z,16.80
2023-02-06T06:58:53.028Z,16.70
2023-02-06T07:01:46.760Z,18.80
2023-02-06T07:04:40.554Z,17.30
2023-02-06T07:07:34.510Z,17.70
2023-02-06T07:10:28.217Z,20.20
2023-02-06T07:13:21.944Z,19.20
2023-02-06T07:16:15.745Z,19.60
2023-02-06T07:19:09.966Z,20.10
2023-02-06T07:22:03.879Z,18.70
2023-02-06T07:24:58.216Z,19.90
2023-02-06T07:27:34.550Z,20.50
2023-02-06T07:30:28.434Z,22.60
2023-02-06T07:33:22.327Z,22.70
2023-02-06T07:36:18.770Z,19.20
2023-02-06T07:39:12.753Z,17.60
2023-02-06T07:42:06.855Z,20.70
2023-02-06T07:45:00.714Z,13.60
2023-02-06T07:47:55.077Z,12.70
2023-02-06T07:50:48.812Z,14.70
2023-02-06T07:53:42.664Z,18.30
2023-02-06T07:56:36.647Z,16.00
2023-02-06T07:59:30.583Z,17.20
2023-02-06T08:02:24.954Z,15.10
2023-02-06T08:05:18.873Z,13.50
2023-02-06T08:08:12.635Z,16.50
2023-02-06T08:11:09.529Z,20.00
2023-02-06T08:14:03.473Z,17.70
2023-02-06T08:16:57.337Z,18.50
2023-02-06T08:19:41.765Z,17.30
2023-02-06T08:22:35.461Z,17.60
2023-02-06T08:25:29.327Z,18.50
2023-02-06T08:28:23.108Z,15.80
2023-02-06T08:31:20.223Z,16.60
2023-02-06T08:34:16.178Z,16.10
2023-02-06T08:37:09.874Z,15.30
2023-02-06T08:39:54.942Z,14.70
2023-02-06T08:42:52.503Z,13.50
2023-02-06T08:45:50.845Z,14.60
2023-02-06T08:48:44.773Z,14.20
2023-02-06T08:51:39.364Z,14.60
2023-02-06T08:54:35.985Z,16.70
2023-02-06T08:57:30.007Z,15.70
2023-02-06T09:00:03.984Z,15.80
2023-02-06T09:02:58.481Z,15.90
2023-02-06T09:05:34.834Z,16.60
2023-02-06T09:08:28.729Z,16.10
2023-02-06T09:11:09.309Z,16.00
2023-02-06T09:14:05.933Z,14.00
2023-02-06T09:16:42.848Z,15.30
2023-02-06T09:19:36.856Z,14.90
2023-02-06T09:22:31.676Z,14.30
2023-02-06T09:25:08.903Z,15.30
2023-02-06T09:28:03.070Z,13.70
2023-02-06T09:30:56.987Z,14.10
2023-02-06T09:33:33.594Z,14.60
2023-02-06T09:36:27.685Z,13.60
2023-02-06T09:39:11.623Z,13.80
2023-02-06T09:42:13.801Z,13.60
2023-02-06T09:45:14.892Z,12.60
2023-02-06T09:48:18.723Z,13.40
2023-02-06T09:51:20.723Z,13.20
2023-02-06T09:54:09.841Z,12.40
2023-02-06T09:56:54.102Z,12.70
2023-02-06T09:59:39.079Z,12.60
2023-02-06T10:02:45.242Z,13.30
2023-02-06T10:05:53.185Z,12.10
2023-02-06T10:08:55.031Z,12.30
2023-02-06T10:11:42.792Z,12.80
2023-02-06T10:14:43.991Z,12.80
2023-02-06T10:17:24.434Z,12.60
2023-02-06T10:20:07.515Z,11.90
2023-02-06T10:22:51.323Z,12.30
2023-02-06T10:25:54.611Z,11.10
2023-02-06T10:28:52.698Z,11.90
2023-02-06T10:31:58.302Z,11.40
2023-02-06T10:35:20.927Z,11.90
2023-02-06T10:39:01.738Z,11.30
2023-02-06T10:41:44.276Z,10.80
2023-02-06T10:44:51.129Z,10.80
2023-02-06T10:47:41.909Z,11.70
2023-02-06T10:50:26.392Z,10.90
2023-02-06T10:53:15.842Z,10.60
2023-02-06T10:56:15.008Z,10.10
2023-02-06T10:59:22.546Z,11.00
2023-02-06T11:02:24.923Z,10.00
2023-02-06T11:05:10.418Z,10.80
2023-02-06T11:07:48.160Z,9.70
2023-02-06T11:10:24.563Z,10.40
2023-02-06T11:13:07.646Z,9.30
2023-02-06T11:16:08.270Z,9.40
2023-02-06T11:18:46.313Z,9.30
2023-02-06T11:21:55.953Z,9.00
2023-02-06T11:25:07.512Z,8.20
2023-02-06T11:28:02.513Z,9.00
2023-02-06T11:31:02.544Z,8.60
2023-02-06T11:33:59.659Z,8.20
2023-02-06T11:36:39.490Z,8.70
2023-02-06T11:39:36.072Z,8.60
2023-02-06T11:42:29.863Z,8.20
2023-02-06T11:45:27.346Z,7.40
2023-02-06T11:48:43.107Z,8.70
2023-02-06T11:51:59.709Z,8.20
2023-02-06T11:58:04.992Z,9.00
2023-02-06T12:01:06.154Z,8.00
2023-02-06T12:04:01.980Z,7.60
2023-02-06T12:07:02.435Z,8.60
2023-02-06T12:09:57.019Z,7.30
2023-02-06T12:12:55.228Z,6.80
2023-02-06T12:15:55.302Z,8.00
2023-02-06T12:18:56.120Z,8.10
2023-02-06T12:21:54.537Z,7.60
2023-02-06T12:24:51.055Z,7.70
2023-02-06T12:27:45.878Z,7.10
2023-02-06T12:30:46.548Z,7.30
2023-02-06T12:33:44.345Z,7.30
2023-02-06T12:39:26.003Z,6.50
2023-02-06T12:42:48.540Z,7.30
2023-02-06T12:45:50.207Z,7.10
2023-02-06T12:48:50.466Z,7.70
2023-02-06T12:51:53.544Z,7.40
2023-02-06T12:54:53.993Z,8.20
2023-02-06T12:57:48.035Z,7.70
2023-02-06T13:01:27.616Z,7.40
2023-02-06T13:04:30.760Z,7.70
2023-02-06T13:07:11.708Z,7.60
2023-02-06T13:10:08.673Z,8.30
2023-02-06T13:12:42.561Z,7.50
2023-02-06T13:15:42.280Z,7.40
2023-02-06T13:19:02.687Z,7.40
2023-02-06T13:22:45.796Z,7.30
2023-02-06T13:25:55.756Z,7.60
2023-02-06T13:29:02.816Z,6.90
2023-02-06T13:32:29.651Z,7.50
2023-02-06T13:35:21.918Z,7.10
2023-02-06T13:38:30.311Z,6.60
2023-02-06T13:41:29.860Z,7.50
2023-02-06T13:44:29.072Z,6.70
2023-02-06T13:47:37.649Z,6.80
2023-02-06T13:50:58.219Z,7.70
2023-02-06T13:54:27.891Z,7.10
2023-02-06T13:57:55.737Z,7.10
2023-02-06T14:00:52.615Z,6.40
2023-02-06T14:03:51.127Z,6.80
2023-02-06T14:06:56.951Z,6.40
2023-02-06T14:10:23.820Z,6.10
2023-02-06T14:13:38.896Z,6.70
2023-02-06T14:16:45.782Z,6.40
2023-02-06T14:20:05.184Z,6.70
2023-02-06T14:23:15.068Z,6.90
2023-02-06T14:26:25.621Z,6.60
2023-02-06T14:29:31.630Z,7.00
2023-02-06T14:32:48.607Z,7.40
2023-02-06T14:36:00.372Z,6.60
2023-02-06T14:39:45.327Z,7.50
2023-02-06T14:42:44.082Z,7.70
2023-02-06T14:45:43.010Z,6.80
2023-02-06T14:48:45.034Z,7.20
2023-02-06T14:51:41.352Z,6.40
2023-02-06T14:54:39.342Z,7.00
2023-02-06T14:57:34.824Z,6.80
2023-02-06T15:00:30.072Z,6.50
2023-02-06T15:03:27.244Z,6.90
2023-02-06T15:06:51.456Z,7.30
2023-02-06T15:09:55.842Z,7.00
2023-02-06T15:12:56.640Z,6.80
2023-02-06T15:15:59.042Z,6.90
2023-02-06T15:18:53.084Z,7.30
2023-02-06T15:21:47.311Z,7.40
2023-02-06T15:25:12.592Z,6.70
2023-02-06T15:28:12.356Z,7.50
2023-02-06T15:31:16.276Z,7.20
2023-02-06T15:34:19.173Z,7.40
2023-02-06T15:37:30.260Z,8.30
2023-02-06T15:40:30.970Z,8.30
2023-02-06T15:43:27.786Z,8.20
2023-02-06T15:46:22.030Z,7.40
2023-02-06T15:49:33.071Z,7.70
2023-02-06T15:52:42.871Z,7.90
2023-02-06T15:55:39.036Z,8.00
2023-02-06T15:58:34.746Z,7.70
2023-02-06T16:01:31.483Z,8.00
2023-02-06T16:04:36.245Z,8.80
2023-02-06T16:07:32.912Z,8.10
2023-02-06T16:10:30.135Z,8.30
2023-02-06T16:13:28.664Z,8.30
2023-02-06T16:16:28.799Z,10.50
2023-02-06T16:19:48.303Z,9.20
2023-02-06T16:22:42.468Z,10.60
2023-02-06T16:25:36.960Z,9.90
2023-02-06T16:28:31.331Z,9.10
2023-02-06T16:31:26.799Z,10.50
2023-02-06T16:34:40.703Z,9.90
2023-02-06T16:37:34.805Z,10.30
2023-02-06T16:40:28.722Z,11.20
2023-02-06T16:43:22.520Z,11.20
2023-02-06T16:46:16.404Z,11.00
2023-02-06T16:49:19.661Z,10.40
2023-02-06T16:52:21.472Z,11.80
2023-02-06T16:55:24.729Z,12.10
2023-02-06T16:58:22.821Z,12.10
2023-02-06T17:01:25.463Z,12.30
2023-02-06T17:04:19.415Z,12.60
2023-02-06T17:07:20.623Z,13.30
2023-02-06T17:10:18.001Z,12.90
2023-02-06T17:13:17.246Z,13.80
2023-02-06T17:16:18.359Z,13.90
2023-02-06T17:19:15.671Z,14.90
2023-02-06T17:22:10.624Z,13.60
2023-02-06T17:25:04.625Z,15.50
2023-02-06T17:27:58.904Z,14.90
2023-02-06T17:30:53.629Z,15.80
2023-02-06T17:33:48.814Z,16.90
2023-02-06T17:36:43.150Z,18.60
2023-02-06T17:39:37.125Z,18.00
2023-02-06T17:42:32.785Z,31.70
2023-02-06T17:45:07.214Z,23.90
2023-02-06T17:47:46.308Z,24.90
2023-02-06T17:50:27.477Z,27.80
2023-02-06T17:53:21.364Z,29.30
2023-02-06T17:56:16.355Z,30.00
2023-02-06T17:59:10.454Z,29.90
2023-02-06T18:02:04.416Z,30.80
2023-02-06T18:05:00.011Z,27.80
2023-02-06T18:07:54.150Z,29.30
2023-02-06T18:10:48.113Z,28.80
2023-02-06T18:13:42.511Z,28.00
2023-02-06T18:16:37.991Z,27.10
2023-02-06T18:19:32.004Z,33.40
2023-02-06T18:22:26.321Z,31.50
2023-02-06T18:25:20.450Z,30.50
2023-02-06T18:28:15.289Z,28.20
2023-02-06T18:31:26.034Z,32.70
2023-02-06T18:34:20.592Z,27.60
2023-02-06T18:37:14.562Z,31.00
2023-02-06T18:40:09.546Z,30.10
2023-02-06T18:43:03.555Z,27.00
2023-02-06T18:45:57.654Z,28.50
2023-02-06T18:48:51.531Z,27.10
2023-02-06T18:51:45.216Z,27.40
2023-02-06T18:54:40.333Z,25.60
2023-02-06T18:57:34.101Z,25.90
2023-02-06T19:00:28.693Z,26.90
2023-02-06T19:03:23.213Z,25.70
2023-02-06T19:06:21.470Z,23.10
2023-02-06T19:09:16.231Z,26.60
2023-02-06T19:12:10.803Z,26.50
2023-02-06T19:15:05.703Z,26.10
2023-02-06T19:17:59.441Z,26.50
2023-02-06T19:20:53.182Z,27.20
2023-02-06T19:23:48.861Z,27.10
2023-02-06T19:26:43.434Z,27.40
2023-02-06T19:29:37.348Z,27.70
2023-02-06T19:32:32.414Z,27.30
2023-02-06T19:35:26.294Z,28.60
2023-02-06T19:38:20.162Z,27.10
2023-02-06T19:41:18.762Z,28.80
2023-02-06T19:44:15.149Z,28.80
2023-02-06T19:47:09.402Z,28.00
2023-02-06T19:50:03.169Z,27.50
2023-02-06T19:52:57.762Z,31.10
2023-02-06T19:55:52.571Z,27.70
2023-02-06T19:58:46.523Z,27.90
2023-02-06T20:01:40.745Z,28.20
2023-02-06T20:04:40.861Z,28.40
2023-02-06T20:07:34.753Z,28.10
2023-02-06T20:10:28.479Z,28.60
2023-02-06T20:13:22.454Z,29.20
2023-02-06T20:16:22.210Z,29.40
2023-02-06T20:19:20.460Z,29.00
2023-02-06T20:22:14.435Z,28.80
2023-02-06T20:25:09.494Z,29.00
2023-02-06T20:28:03.321Z,29.70
2023-02-06T20:30:57.144Z,29.20
2023-02-06T20:33:52.002Z,30.20
2023-02-06T20:36:46.514Z,29.00
2023-02-06T20:39:40.738Z,29.00
2023-02-06T20:42:36.837Z,29.20
2023-02-06T20:45:30.998Z,29.10
2023-02-06T20:48:24.824Z,29.20
2023-02-06T20:51:18.671Z,29.30
2023-02-06T20:54:12.740Z,30.30
2023-02-06T20:57:06.745Z,30.80
2023-02-06T21:00:00.594Z,29.40
2023-02-06T21:02:44.407Z,31.70
2023-02-06T21:05:38.987Z,31.20
2023-02-06T21:08:33.318Z,32.50
2023-02-06T21:11:29.555Z,32.20
2023-02-06T21:14:24.053Z,33.10
2023-02-06T21:17:18.047Z,33.20
2023-02-06T21:20:13.851Z,32.50
2023-02-06T21:23:07.539Z,33.80
2023-02-06T21:26:01.513Z,35.20
2023-02-06T21:28:55.786Z,35.50
2023-02-06T21:31:55.755Z,35.20
2023-02-06T21:34:55.617Z,34.70
2023-02-06T21:37:49.306Z,34.30
2023-02-06T21:40:43.055Z,34.70
2023-02-06T21:43:37.064Z,35.60
2023-02-06T21:46:31.403Z,37.00
2023-02-06T21:49:25.549Z,37.60
2023-02-06T21:52:19.288Z,38.20
2023-02-06T21:55:13.444Z,36.60
2023-02-06T21:58:07.462Z,38.60
2023-02-06T22:01:01.309Z,39.10
2023-02-06T22:03:55.361Z,38.50
2023-02-06T22:06:49.219Z,39.60
2023-02-06T22:09:43.149Z,39.50
2023-02-06T22:12:37.325Z,39.20
2023-02-06T22:15:31.084Z,39.90
2023-02-06T22:18:24.835Z,41.00
2023-02-06T22:21:21.238Z,41.30
2023-02-06T22:24:15.367Z,40.30
2023-02-06T22:27:09.213Z,42.20
2023-02-06T22:30:03.096Z,41.90
2023-02-06T22:32:57.147Z,43.70
2023-02-06T22:35:50.936Z,43.90
2023-02-06T22:38:46.439Z,47.40
2023-02-06T22:41:44.746Z,43.20
2023-02-06T22:44:38.420Z,44.30
2023-02-06T22:47:33.397Z,43.90
2023-02-06T22:50:27.435Z,48.10
2023-02-06T22:53:30.211Z,48.10
2023-02-06T22:56:31.272Z,47.70
2023-02-06T22:59:26.672Z,47.10
2023-02-06T23:02:20.573Z,50.00
2023-02-06T23:05:14.732Z,48.60
2023-02-06T23:08:08.919Z,49.90
2023-02-06T23:10:52.776Z,49.60
2023-02-06T23:13:46.782Z,49.10
2023-02-06T23:16:40.966Z,49.00
2023-02-06T23:19:34.698Z,51.30
2023-02-06T23:22:28.388Z,51.30
2023-02-06T23:25:22.281Z,51.40
2023-02-06T23:28:15.944Z,51.30
2023-02-06T23:31:11.718Z,51.90
2023-02-06T23:34:05.744Z,51.50
2023-02-06T23:36:59.509Z,53.00
2023-02-06T23:39:53.284Z,52.90
2023-02-06T23:42:46.978Z,53.10
2023-02-06T23:45:41.385Z,54.20
2023-02-06T23:48:36.096Z,52.60
2023-02-06T23:51:31.663Z,57.60
2023-02-06T23:54:25.257Z,53.20
2023-02-06T23:57:18.995Z,53.60
